createdAt,value
2019-03-01T00:00:15.033Z,9.45
2019-03-01T00:01:14.118Z,9.64
2019-03-01T00:02:14.381Z,9.61
2019-03-01T00:03:14.640Z,9.61
2019-03-01T00:04:14.909Z,9.58
2019-03-01T00:05:14.178Z,9.65
2019-03-01T00:06:14.448Z,9.58
2019-03-01T00:07:14.724Z,9.64
2019-03-01T00:08:14.005Z,9.59
2019-03-01T00:09:14.293Z,9.65
2019-03-01T00:10:14.558Z,9.71
2019-03-01T00:11:14.610Z,9.69
2019-03-01T00:12:14.886Z,9.65
2019-03-01T00:13:14.166Z,9.61
2019-03-01T00:14:14.430Z,9.66
2019-03-01T00:15:14.713Z,9.62
2019-03-01T00:16:14.999Z,9.59
2019-03-01T00:17:14.266Z,9.71
2019-03-01T00:18:14.534Z,9.68
2019-03-01T00:19:14.794Z,9.66
2019-03-01T00:20:14.074Z,9.64
2019-03-01T00:21:14.136Z,9.61
2019-03-01T00:22:14.402Z,9.57
2019-03-01T00:23:14.673Z,9.55
2019-03-01T00:24:14.952Z,9.48
2019-03-01T00:25:14.857Z,9.57
2019-03-01T00:26:14.120Z,9.55
2019-03-01T00:27:14.388Z,9.53
2019-03-01T00:28:14.654Z,9.53
2019-03-01T00:29:14.920Z,9.51
2019-03-01T00:30:14.201Z,9.47
2019-03-01T00:31:14.257Z,9.51
2019-03-01T00:32:15.078Z,9.48
2019-03-01T00:33:14.344Z,9.57
2019-03-01T00:34:14.613Z,9.58
2019-03-01T00:35:14.886Z,9.58
2019-03-01T00:36:14.158Z,9.58
2019-03-01T00:37:14.417Z,9.58
2019-03-01T00:38:14.682Z,9.55
2019-03-01T00:39:14.970Z,9.44
2019-03-01T00:40:14.255Z,9.40
2019-03-01T00:41:14.330Z,9.43
2019-03-01T00:42:14.604Z,9.55
2019-03-01T00:43:14.865Z,9.51
2019-03-01T00:44:14.131Z,9.53
2019-03-01T00:45:14.393Z,9.51
2019-03-01T00:46:14.667Z,9.45
2019-03-01T00:47:14.932Z,9.47
2019-03-01T00:48:14.253Z,9.45
2019-03-01T00:49:14.529Z,9.34
2019-03-01T00:50:14.796Z,9.38
2019-03-01T00:51:14.852Z,9.43
2019-03-01T00:52:14.146Z,9.43
2019-03-01T00:53:14.415Z,9.45
2019-03-01T00:54:14.705Z,9.41
2019-03-01T00:55:14.974Z,9.38
2019-03-01T00:56:14.240Z,9.48
2019-03-01T00:57:14.519Z,9.45
2019-03-01T00:58:14.796Z,9.41
2019-03-01T00:59:14.076Z,9.43
2019-03-01T01:00:14.341Z,9.43
2019-03-01T01:01:14.417Z,9.53
2019-03-01T01:02:14.682Z,9.47
2019-03-01T01:03:14.947Z,9.34
2019-03-01T01:04:14.488Z,9.36
2019-03-01T01:05:14.773Z,9.30
2019-03-01T01:06:14.055Z,9.31
2019-03-01T01:07:14.307Z,9.36
2019-03-01T01:08:14.567Z,9.40
2019-03-01T01:09:14.846Z,9.37
2019-03-01T01:10:14.120Z,9.36
2019-03-01T01:11:14.191Z,9.34
2019-03-01T01:12:14.470Z,9.38
2019-03-01T01:13:14.744Z,9.37
2019-03-01T01:14:14.010Z,9.30
2019-03-01T01:15:14.280Z,9.30
2019-03-01T01:16:14.556Z,9.29
2019-03-01T01:17:14.821Z,9.29
2019-03-01T01:18:14.096Z,9.34
2019-03-01T01:19:14.374Z,9.36
2019-03-01T01:20:14.670Z,9.31
2019-03-01T01:21:14.693Z,9.30
2019-03-01T01:22:14.960Z,9.26
2019-03-01T01:23:14.239Z,9.24
2019-03-01T01:24:14.515Z,9.23
2019-03-01T01:25:14.776Z,9.36
2019-03-01T01:26:14.046Z,9.36
2019-03-01T01:27:14.309Z,9.36
2019-03-01T01:28:14.602Z,9.30
2019-03-01T01:29:14.880Z,9.38
2019-03-01T01:30:14.157Z,9.31
2019-03-01T01:31:14.228Z,9.33
2019-03-01T01:32:14.510Z,9.20
2019-03-01T01:33:14.778Z,9.24
2019-03-01T01:34:14.050Z,9.29
2019-03-01T01:35:14.330Z,9.36
2019-03-01T01:36:14.914Z,9.37
2019-03-01T01:37:14.198Z,9.36
2019-03-01T01:38:14.464Z,9.34
2019-03-01T01:39:14.739Z,9.36
2019-03-01T01:40:14.014Z,9.31
2019-03-01T01:41:14.130Z,9.34
2019-03-01T01:42:14.391Z,9.34
2019-03-01T01:43:14.654Z,9.31
2019-03-01T01:44:14.925Z,9.30
2019-03-01T01:45:14.195Z,9.27
2019-03-01T01:46:14.463Z,9.37
2019-03-01T01:47:14.740Z,9.43
2019-03-01T01:48:14.005Z,9.41
2019-03-01T01:49:14.278Z,9.38
2019-03-01T01:50:14.555Z,9.34
2019-03-01T01:51:14.632Z,9.33
2019-03-01T01:52:14.935Z,9.34
2019-03-01T01:53:14.209Z,9.37
2019-03-01T01:54:14.478Z,9.41
2019-03-01T01:55:14.752Z,9.33
2019-03-01T01:56:14.021Z,9.33
2019-03-01T01:57:14.294Z,9.30
2019-03-01T01:58:14.561Z,9.36
2019-03-01T01:59:14.876Z,9.36
2019-03-01T02:00:14.156Z,9.26
2019-03-01T02:01:14.213Z,9.22
2019-03-01T02:02:14.483Z,9.48
2019-03-01T02:03:14.748Z,9.44
2019-03-01T02:04:14.024Z,9.31
2019-03-01T02:05:14.289Z,9.33
2019-03-01T02:06:14.556Z,9.29
2019-03-01T02:07:14.821Z,9.30
2019-03-01T02:08:14.855Z,9.33
2019-03-01T02:09:14.144Z,9.31
2019-03-01T02:10:14.418Z,9.40
2019-03-01T02:11:14.477Z,9.36
2019-03-01T02:12:14.745Z,9.40
2019-03-01T02:13:14.020Z,9.37
2019-03-01T02:14:14.298Z,9.38
2019-03-01T02:15:14.561Z,9.33
2019-03-01T02:16:14.827Z,9.45
2019-03-01T02:17:14.097Z,9.48
2019-03-01T02:18:14.374Z,9.55
2019-03-01T02:19:14.645Z,9.50
2019-03-01T02:20:14.914Z,9.43
2019-03-01T02:21:14.982Z,9.44
2019-03-01T02:22:14.258Z,9.43
2019-03-01T02:23:14.533Z,9.47
2019-03-01T02:24:14.816Z,9.51
2019-03-01T02:25:14.084Z,9.40
2019-03-01T02:26:14.347Z,9.38
2019-03-01T02:27:14.610Z,9.34
2019-03-01T02:28:14.875Z,9.37
2019-03-01T02:29:14.146Z,9.37
2019-03-01T02:30:14.430Z,9.43
2019-03-01T02:31:14.471Z,9.45
2019-03-01T02:32:14.732Z,9.41
2019-03-01T02:33:13.997Z,9.46
2019-03-01T02:34:14.254Z,9.45
2019-03-01T02:35:14.577Z,9.37
2019-03-01T02:36:14.854Z,9.41
2019-03-01T02:37:14.133Z,9.43
2019-03-01T02:38:14.421Z,9.40
2019-03-01T02:39:14.709Z,9.34
2019-03-01T02:40:14.057Z,9.37
2019-03-01T02:41:14.071Z,9.41
2019-03-01T02:42:14.349Z,9.38
2019-03-01T02:43:14.632Z,9.34
2019-03-01T02:44:14.917Z,9.29
2019-03-01T02:45:14.204Z,9.19
2019-03-01T02:46:14.480Z,9.19
2019-03-01T02:47:14.755Z,9.17
2019-03-01T02:48:14.064Z,9.24
2019-03-01T02:49:14.338Z,9.13
2019-03-01T02:50:14.622Z,9.16
2019-03-01T02:51:14.679Z,9.17
2019-03-01T02:52:14.961Z,9.19
2019-03-01T02:53:14.300Z,9.22
2019-03-01T02:54:14.574Z,9.23
2019-03-01T02:55:14.867Z,9.20
2019-03-01T02:56:14.197Z,9.17
2019-03-01T02:57:14.500Z,9.20
2019-03-01T02:58:14.869Z,9.17
2019-03-01T02:59:14.192Z,9.13
2019-03-01T03:00:14.484Z,9.09
2019-03-01T03:01:14.542Z,9.10
2019-03-01T03:02:14.823Z,9.13
2019-03-01T03:03:14.091Z,9.19
2019-03-01T03:04:14.377Z,9.22
2019-03-01T03:05:14.647Z,9.17
2019-03-01T03:06:14.912Z,9.13
2019-03-01T03:07:14.178Z,9.10
2019-03-01T03:08:14.474Z,9.02
2019-03-01T03:09:14.753Z,9.03
2019-03-01T03:10:14.107Z,8.95
2019-03-01T03:11:14.498Z,8.94
2019-03-01T03:12:14.764Z,8.95
2019-03-01T03:13:14.089Z,9.03
2019-03-01T03:14:14.362Z,8.98
2019-03-01T03:15:14.640Z,8.91
2019-03-01T03:16:14.913Z,8.88
2019-03-01T03:17:14.266Z,8.91
2019-03-01T03:18:14.549Z,8.91
2019-03-01T03:19:14.838Z,8.88
2019-03-01T03:20:14.156Z,8.91
2019-03-01T03:21:14.231Z,8.82
2019-03-01T03:22:14.516Z,8.85
2019-03-01T03:23:14.793Z,8.76
2019-03-01T03:24:14.070Z,8.85
2019-03-01T03:25:14.366Z,8.89
2019-03-01T03:26:14.646Z,8.85
2019-03-01T03:27:15.008Z,8.79
2019-03-01T03:28:14.284Z,8.80
2019-03-01T03:29:14.576Z,8.80
2019-03-01T03:30:14.700Z,8.79
2019-03-01T03:31:14.737Z,8.79
2019-03-01T03:32:14.145Z,8.82
2019-03-01T03:33:14.456Z,8.84
2019-03-01T03:34:14.759Z,8.80
2019-03-01T03:35:14.058Z,8.78
2019-03-01T03:36:14.373Z,8.71
2019-03-01T03:37:14.662Z,8.68
2019-03-01T03:38:14.935Z,8.64
2019-03-01T03:39:14.230Z,8.68
2019-03-01T03:40:14.527Z,8.69
2019-03-01T03:41:14.581Z,8.67
2019-03-01T03:42:14.854Z,8.67
2019-03-01T03:43:14.219Z,8.67
2019-03-01T03:44:14.504Z,8.61
2019-03-01T03:45:14.764Z,8.64
2019-03-01T03:46:14.045Z,8.61
2019-03-01T03:47:14.311Z,8.58
2019-03-01T03:48:14.668Z,8.61
2019-03-01T03:49:14.974Z,8.62
2019-03-01T03:50:14.275Z,8.57
2019-03-01T03:51:14.305Z,8.59
2019-03-01T03:52:14.564Z,8.52
2019-03-01T03:53:14.851Z,8.47
2019-03-01T03:54:14.128Z,8.45
2019-03-01T03:55:14.447Z,8.50
2019-03-01T03:56:14.745Z,8.50
2019-03-01T03:57:14.008Z,8.54
2019-03-01T03:58:14.318Z,8.52
2019-03-01T03:59:14.969Z,8.51
2019-03-01T04:00:14.299Z,8.52
2019-03-01T04:01:14.360Z,8.50
2019-03-01T04:02:14.641Z,8.48
2019-03-01T04:03:14.924Z,8.50
2019-03-01T04:04:14.207Z,8.44
2019-03-01T04:05:14.485Z,8.36
2019-03-01T04:06:14.763Z,8.40
2019-03-01T04:07:14.063Z,8.43
2019-03-01T04:08:14.329Z,8.39
2019-03-01T04:09:14.602Z,8.43
2019-03-01T04:10:14.891Z,8.41
2019-03-01T04:11:14.934Z,8.29
2019-03-01T04:12:14.198Z,8.29
2019-03-01T04:13:16.601Z,8.23
2019-03-01T04:14:14.210Z,8.26
2019-03-01T04:15:14.517Z,8.30
2019-03-01T04:16:14.777Z,8.24
2019-03-01T04:17:14.083Z,8.19
2019-03-01T04:18:14.347Z,8.21
2019-03-01T04:19:14.620Z,8.30
2019-03-01T04:20:14.890Z,8.33
2019-03-01T04:21:14.936Z,8.37
2019-03-01T04:22:14.213Z,8.29
2019-03-01T04:23:14.480Z,8.21
2019-03-01T04:24:14.768Z,8.37
2019-03-01T04:25:14.062Z,8.37
2019-03-01T04:26:14.337Z,8.37
2019-03-01T04:27:14.622Z,8.51
2019-03-01T04:28:14.968Z,8.48
2019-03-01T04:29:14.239Z,8.48
2019-03-01T04:30:14.524Z,8.43
2019-03-01T04:31:14.615Z,8.41
2019-03-01T04:32:14.888Z,8.34
2019-03-01T04:33:14.154Z,8.40
2019-03-01T04:34:14.414Z,8.34
2019-03-01T04:35:14.680Z,8.34
2019-03-01T04:36:14.958Z,8.39
2019-03-01T04:37:14.224Z,8.30
2019-03-01T04:38:14.495Z,8.21
2019-03-01T04:39:14.764Z,8.23
2019-03-01T04:40:14.052Z,8.19
2019-03-01T04:41:14.115Z,8.24
2019-03-01T04:42:14.422Z,8.17
2019-03-01T04:43:14.687Z,8.17
2019-03-01T04:44:14.002Z,8.06
2019-03-01T04:45:14.279Z,8.14
2019-03-01T04:46:14.541Z,8.26
2019-03-01T04:47:14.820Z,8.27
2019-03-01T04:48:14.093Z,8.21
2019-03-01T04:49:14.367Z,8.20
2019-03-01T04:50:14.636Z,8.24
2019-03-01T04:51:14.694Z,8.19
2019-03-01T04:52:14.963Z,8.10
2019-03-01T04:53:14.244Z,8.12
2019-03-01T04:54:14.510Z,8.14
2019-03-01T04:55:14.807Z,8.17
2019-03-01T04:56:14.089Z,8.21
2019-03-01T04:57:14.348Z,8.19
2019-03-01T04:58:14.619Z,8.17
2019-03-01T04:59:14.884Z,8.13
2019-03-01T05:00:14.170Z,8.12
2019-03-01T05:01:14.234Z,8.14
2019-03-01T05:02:14.505Z,8.10
2019-03-01T05:03:14.790Z,8.09
2019-03-01T05:04:13.991Z,8.05
2019-03-01T05:05:14.252Z,7.99
2019-03-01T05:06:14.536Z,8.02
2019-03-01T05:07:14.798Z,7.91
2019-03-01T05:08:14.065Z,8.02
2019-03-01T05:09:14.336Z,8.08
2019-03-01T05:10:14.630Z,7.96
2019-03-01T05:11:14.677Z,7.95
2019-03-01T05:12:14.941Z,7.93
2019-03-01T05:13:14.210Z,7.98
2019-03-01T05:14:14.477Z,7.95
2019-03-01T05:15:14.767Z,7.92
2019-03-01T05:16:14.043Z,7.91
2019-03-01T05:17:14.309Z,7.88
2019-03-01T05:18:14.575Z,7.92
2019-03-01T05:19:14.859Z,7.91
2019-03-01T05:20:14.203Z,7.95
2019-03-01T05:21:14.271Z,7.98
2019-03-01T05:22:14.556Z,7.91
2019-03-01T05:23:14.822Z,7.92
2019-03-01T05:24:14.099Z,7.95
2019-03-01T05:25:14.364Z,7.91
2019-03-01T05:26:14.698Z,7.96
2019-03-01T05:27:14.970Z,7.96
2019-03-01T05:28:14.250Z,7.89
2019-03-01T05:29:14.520Z,7.92
2019-03-01T05:30:14.802Z,7.89
2019-03-01T05:31:14.863Z,7.89
2019-03-01T05:32:14.116Z,7.91
2019-03-01T05:33:14.383Z,8.08
2019-03-01T05:34:14.651Z,8.09
2019-03-01T05:35:15.204Z,8.02
2019-03-01T05:36:14.477Z,8.05
2019-03-01T05:37:14.761Z,7.98
2019-03-01T05:38:21.441Z,7.98
2019-03-01T05:39:14.466Z,8.05
2019-03-01T05:40:14.767Z,8.06
2019-03-01T05:41:14.797Z,7.99
2019-03-01T05:42:14.083Z,7.98
2019-03-01T05:43:14.356Z,7.96
2019-03-01T05:44:14.623Z,8.02
2019-03-01T05:45:14.905Z,8.03
2019-03-01T05:46:14.179Z,8.02
2019-03-01T05:47:14.450Z,7.95
2019-03-01T05:48:14.712Z,7.98
2019-03-01T05:49:14.978Z,7.93
2019-03-01T05:50:14.525Z,7.96
2019-03-01T05:51:14.617Z,8.00
2019-03-01T05:52:14.906Z,7.95
2019-03-01T05:53:14.181Z,7.95
2019-03-01T05:54:14.475Z,7.89
2019-03-01T05:55:14.772Z,7.89
2019-03-01T05:56:14.033Z,7.96
2019-03-01T05:57:14.289Z,7.91
2019-03-01T05:58:16.651Z,7.91
2019-03-01T05:59:14.278Z,7.89
2019-03-01T06:00:14.543Z,7.84
2019-03-01T06:01:14.603Z,7.88
2019-03-01T06:02:14.883Z,7.85
2019-03-01T06:03:14.160Z,7.86
2019-03-01T06:04:14.427Z,7.86
2019-03-01T06:05:14.696Z,7.85
2019-03-01T06:06:14.969Z,7.78
2019-03-01T06:07:14.264Z,7.78
2019-03-01T06:08:14.531Z,7.78
2019-03-01T06:09:14.803Z,7.82
2019-03-01T06:10:14.090Z,7.80
2019-03-01T06:11:14.142Z,7.81
2019-03-01T06:12:14.407Z,7.81
2019-03-01T06:13:14.675Z,7.81
2019-03-01T06:14:14.951Z,7.77
2019-03-01T06:15:14.237Z,7.78
2019-03-01T06:16:14.512Z,7.78
2019-03-01T06:17:14.779Z,7.81
2019-03-01T06:18:14.061Z,7.81
2019-03-01T06:19:14.333Z,7.78
2019-03-01T06:20:14.614Z,7.74
2019-03-01T06:21:14.679Z,7.74
2019-03-01T06:22:14.950Z,7.74
2019-03-01T06:23:14.235Z,7.74
2019-03-01T06:24:14.501Z,7.74
2019-03-01T06:25:14.772Z,7.75
2019-03-01T06:26:14.056Z,7.75
2019-03-01T06:27:16.276Z,7.77
2019-03-01T06:28:14.720Z,7.77
2019-03-01T06:29:14.981Z,7.74
2019-03-01T06:30:14.251Z,7.72
2019-03-01T06:31:14.303Z,7.74
2019-03-01T06:32:14.573Z,7.71
2019-03-01T06:33:14.835Z,7.81
2019-03-01T06:34:14.115Z,7.77
2019-03-01T06:35:14.382Z,7.82
2019-03-01T06:36:14.649Z,7.82
2019-03-01T06:37:14.936Z,7.85
2019-03-01T06:38:16.006Z,7.88
2019-03-01T06:39:14.489Z,7.91
2019-03-01T06:40:14.766Z,7.89
2019-03-01T06:41:14.847Z,7.95
2019-03-01T06:42:14.126Z,7.95
2019-03-01T06:43:14.391Z,7.98
2019-03-01T06:44:14.645Z,7.99
2019-03-01T06:45:14.918Z,8.00
2019-03-01T06:46:14.187Z,7.98
2019-03-01T06:47:14.468Z,8.00
2019-03-01T06:48:14.733Z,7.99
2019-03-01T06:49:13.988Z,8.02
2019-03-01T06:50:14.266Z,8.03
2019-03-01T06:51:14.359Z,7.99
2019-03-01T06:52:14.636Z,7.96
2019-03-01T06:53:14.902Z,7.96
2019-03-01T06:54:14.191Z,7.91
2019-03-01T06:55:14.456Z,7.88
2019-03-01T06:56:14.726Z,7.84
2019-03-01T06:57:13.999Z,7.84
2019-03-01T06:58:14.265Z,7.84
2019-03-01T06:59:14.527Z,7.80
2019-03-01T07:00:14.806Z,7.81
2019-03-01T07:01:14.870Z,7.77
2019-03-01T07:02:14.125Z,7.77
2019-03-01T07:03:14.401Z,7.74
2019-03-01T07:04:14.673Z,7.69
2019-03-01T07:05:14.942Z,7.66
2019-03-01T07:06:14.209Z,7.72
2019-03-01T07:07:14.489Z,7.69
2019-03-01T07:08:14.767Z,7.71
2019-03-01T07:09:14.042Z,7.72
2019-03-01T07:10:14.345Z,7.71
2019-03-01T07:11:14.378Z,7.66
2019-03-01T07:12:14.751Z,7.71
2019-03-01T07:13:14.048Z,7.69
2019-03-01T07:14:14.320Z,7.66
2019-03-01T07:15:14.581Z,7.69
2019-03-01T07:16:14.848Z,7.72
2019-03-01T07:17:14.122Z,7.71
2019-03-01T07:18:14.399Z,7.78
2019-03-01T07:19:14.669Z,7.77
2019-03-01T07:20:14.943Z,7.81
2019-03-01T07:21:14.006Z,7.84
2019-03-01T07:22:14.281Z,7.88
2019-03-01T07:23:14.539Z,7.89
2019-03-01T07:24:14.866Z,7.98
2019-03-01T07:25:14.409Z,7.98
2019-03-01T07:26:14.737Z,8.03
2019-03-01T07:27:14.031Z,8.05
2019-03-01T07:28:14.291Z,8.06
2019-03-01T07:29:14.552Z,8.08
2019-03-01T07:30:14.832Z,8.14
2019-03-01T07:31:14.880Z,8.13
2019-03-01T07:32:14.152Z,8.16
2019-03-01T07:33:14.477Z,8.17
2019-03-01T07:34:14.754Z,8.17
2019-03-01T07:35:14.017Z,8.17
2019-03-01T07:36:14.293Z,8.20
2019-03-01T07:37:14.564Z,8.19
2019-03-01T07:38:14.828Z,8.23
2019-03-01T07:39:14.102Z,8.26
2019-03-01T07:40:14.384Z,8.24
2019-03-01T07:41:14.440Z,8.23
2019-03-01T07:42:14.732Z,8.24
2019-03-01T07:43:14.011Z,8.27
2019-03-01T07:44:14.290Z,8.29
2019-03-01T07:45:14.555Z,8.29
2019-03-01T07:46:14.830Z,8.30
2019-03-01T07:47:14.100Z,8.29
2019-03-01T07:48:14.371Z,8.36
2019-03-01T07:49:14.635Z,8.34
2019-03-01T07:50:14.927Z,8.30
2019-03-01T07:51:14.986Z,8.30
2019-03-01T07:52:14.259Z,8.40
2019-03-01T07:53:14.524Z,8.41
2019-03-01T07:54:16.688Z,8.40
2019-03-01T07:55:14.363Z,8.44
2019-03-01T07:56:14.651Z,8.43
2019-03-01T07:57:15.636Z,8.33
2019-03-01T07:58:14.963Z,8.44
2019-03-01T07:59:14.234Z,8.44
2019-03-01T08:00:14.857Z,8.47
2019-03-01T08:01:14.578Z,8.41
2019-03-01T08:02:14.859Z,8.47
2019-03-01T08:03:15.105Z,8.43
2019-03-01T08:04:14.610Z,8.47
2019-03-01T08:05:16.197Z,8.47
2019-03-01T08:06:14.308Z,8.44
2019-03-01T08:07:14.627Z,8.40
2019-03-01T08:08:14.930Z,8.40
2019-03-01T08:09:14.200Z,8.34
2019-03-01T08:10:20.491Z,8.39
2019-03-01T08:11:14.546Z,8.41
2019-03-01T08:12:14.808Z,8.39
2019-03-01T08:13:14.676Z,8.39
2019-03-01T08:14:14.674Z,8.37
2019-03-01T08:15:14.953Z,8.45
2019-03-01T08:16:16.537Z,8.43
2019-03-01T08:17:14.655Z,8.39
2019-03-01T08:18:14.930Z,8.41
2019-03-01T08:19:15.673Z,8.45
2019-03-01T08:20:14.897Z,8.48
2019-03-01T08:21:14.933Z,8.48
2019-03-01T08:22:14.337Z,8.52
2019-03-01T08:23:14.616Z,8.55
2019-03-01T08:24:14.889Z,8.55
2019-03-01T08:25:14.183Z,8.62
2019-03-01T08:26:14.443Z,8.57
2019-03-01T08:27:14.712Z,8.62
2019-03-01T08:28:14.972Z,8.61
2019-03-01T08:29:14.260Z,8.59
2019-03-01T08:30:14.555Z,8.62
2019-03-01T08:31:17.397Z,8.64
2019-03-01T08:32:14.277Z,8.65
2019-03-01T08:33:14.544Z,8.62
2019-03-01T08:34:17.675Z,8.62
2019-03-01T08:35:14.949Z,8.59
2019-03-01T08:36:14.224Z,8.54
2019-03-01T08:37:17.328Z,8.57
2019-03-01T08:38:14.668Z,8.67
2019-03-01T08:39:14.960Z,8.68
2019-03-01T08:40:14.640Z,8.71
2019-03-01T08:41:14.322Z,8.76
2019-03-01T08:42:14.585Z,8.76
2019-03-01T08:43:14.876Z,8.72
2019-03-01T08:44:14.162Z,8.79
2019-03-01T08:45:15.664Z,8.79
2019-03-01T08:46:14.944Z,8.80
2019-03-01T08:47:14.216Z,8.88
2019-03-01T08:48:14.481Z,8.76
2019-03-01T08:49:14.742Z,8.84
2019-03-01T08:50:14.020Z,8.86
2019-03-01T08:51:14.121Z,8.80
2019-03-01T08:52:14.390Z,8.82
2019-03-01T08:53:15.074Z,8.80
2019-03-01T08:54:14.431Z,8.89
2019-03-01T08:55:14.696Z,8.79
2019-03-01T08:56:15.519Z,8.79
2019-03-01T08:57:14.847Z,8.78
2019-03-01T08:58:14.114Z,8.79
2019-03-01T08:59:17.387Z,8.71
2019-03-01T09:00:14.987Z,8.76
2019-03-01T09:01:14.073Z,8.80
2019-03-01T09:02:14.353Z,8.79
2019-03-01T09:03:15.971Z,8.76
2019-03-01T09:04:17.306Z,8.76
2019-03-01T09:05:14.651Z,8.75
2019-03-01T09:06:14.912Z,8.80
2019-03-01T09:07:14.184Z,8.82
2019-03-01T09:08:14.444Z,8.88
2019-03-01T09:09:17.525Z,8.88
2019-03-01T09:10:14.380Z,8.82
2019-03-01T09:11:14.434Z,8.79
2019-03-01T09:12:14.715Z,8.72
2019-03-01T09:13:13.986Z,8.61
2019-03-01T09:14:14.258Z,8.62
2019-03-01T09:15:14.546Z,8.55
2019-03-01T09:16:14.811Z,8.55
2019-03-01T09:17:14.094Z,8.62
2019-03-01T09:18:14.551Z,8.59
2019-03-01T09:19:14.707Z,8.65
2019-03-01T09:20:14.993Z,8.69
2019-03-01T09:21:14.106Z,8.82
2019-03-01T09:22:14.381Z,8.85
2019-03-01T09:23:22.749Z,8.78
2019-03-01T09:24:14.433Z,8.80
2019-03-01T09:25:14.705Z,8.82
2019-03-01T09:26:16.588Z,8.86
2019-03-01T09:27:14.187Z,8.78
2019-03-01T09:28:14.462Z,8.82
2019-03-01T09:29:18.397Z,8.80
2019-03-01T09:30:14.700Z,8.72
2019-03-01T09:31:14.756Z,8.71
2019-03-01T09:32:14.033Z,8.65
2019-03-01T09:33:17.085Z,8.62
2019-03-01T09:34:14.706Z,8.64
2019-03-01T09:35:14.976Z,8.59
2019-03-01T09:36:14.512Z,8.54
2019-03-01T09:37:14.748Z,8.50
2019-03-01T09:38:14.018Z,8.40
2019-03-01T09:39:17.503Z,8.41
2019-03-01T09:40:14.458Z,8.51
2019-03-01T09:41:14.568Z,8.45
2019-03-01T09:42:15.494Z,8.37
2019-03-01T09:43:14.596Z,8.40
2019-03-01T09:44:14.866Z,8.39
2019-03-01T09:45:14.321Z,8.30
2019-03-01T09:46:14.649Z,8.33
2019-03-01T09:47:14.912Z,8.29
2019-03-01T09:48:14.196Z,8.21
2019-03-01T09:49:14.488Z,8.24
2019-03-01T09:50:14.773Z,8.23
2019-03-01T09:51:15.838Z,8.31
2019-03-01T09:52:14.350Z,8.36
2019-03-01T09:53:14.610Z,8.30
2019-03-01T09:54:14.878Z,8.27
2019-03-01T09:55:14.147Z,8.30
2019-03-01T09:56:14.432Z,8.29
2019-03-01T09:57:15.552Z,8.29
2019-03-01T09:58:14.773Z,8.26
2019-03-01T09:59:14.041Z,8.21
2019-03-01T10:00:14.347Z,8.26
2019-03-01T10:01:14.401Z,8.17
2019-03-01T10:02:14.667Z,8.13
2019-03-01T10:03:14.963Z,8.23
2019-03-01T10:04:14.232Z,8.23
2019-03-01T10:05:14.533Z,8.17
2019-03-01T10:06:14.810Z,8.19
2019-03-01T10:07:14.077Z,8.19
2019-03-01T10:08:14.352Z,8.16
2019-03-01T10:09:14.615Z,8.24
2019-03-01T10:10:14.885Z,8.20
2019-03-01T10:11:14.962Z,8.19
2019-03-01T10:12:14.226Z,8.24
2019-03-01T10:13:14.489Z,8.24
2019-03-01T10:14:14.745Z,8.19
2019-03-01T10:15:14.046Z,8.26
2019-03-01T10:16:14.311Z,8.20
2019-03-01T10:17:14.575Z,8.26
2019-03-01T10:18:14.845Z,8.29
2019-03-01T10:19:14.117Z,8.27
2019-03-01T10:20:14.402Z,8.31
2019-03-01T10:21:14.482Z,8.34
2019-03-01T10:22:14.745Z,8.36
2019-03-01T10:23:14.050Z,8.27
2019-03-01T10:24:14.322Z,8.36
2019-03-01T10:25:14.583Z,8.54
2019-03-01T10:26:14.842Z,8.59
2019-03-01T10:27:14.110Z,8.61
2019-03-01T10:28:14.379Z,8.69
2019-03-01T10:29:14.664Z,8.78
2019-03-01T10:30:14.950Z,8.84
2019-03-01T10:31:14.979Z,8.79
2019-03-01T10:32:14.255Z,8.82
2019-03-01T10:33:14.520Z,8.79
2019-03-01T10:34:14.783Z,9.06
2019-03-01T10:35:14.066Z,9.13
2019-03-01T10:36:14.335Z,8.92
2019-03-01T10:37:14.621Z,8.95
2019-03-01T10:38:14.883Z,8.94
2019-03-01T10:39:14.148Z,8.86
2019-03-01T10:40:14.431Z,8.94
2019-03-01T10:41:14.492Z,8.92
2019-03-01T10:42:14.845Z,9.02
2019-03-01T10:43:14.115Z,8.94
2019-03-01T10:44:14.391Z,8.92
2019-03-01T10:45:14.661Z,9.02
2019-03-01T10:46:14.938Z,9.10
2019-03-01T10:47:14.207Z,9.07
2019-03-01T10:48:14.476Z,9.02
2019-03-01T10:49:14.751Z,8.98
2019-03-01T10:50:14.022Z,8.95
2019-03-01T10:51:14.099Z,8.98
2019-03-01T10:52:14.358Z,8.99
2019-03-01T10:53:14.729Z,8.91
2019-03-01T10:54:14.195Z,8.94
2019-03-01T10:55:14.461Z,8.94
2019-03-01T10:56:14.727Z,8.96
2019-03-01T10:57:13.999Z,8.98
2019-03-01T10:58:14.289Z,8.96
2019-03-01T10:59:14.562Z,8.96
2019-03-01T11:00:14.845Z,9.06
2019-03-01T11:01:14.931Z,9.07
2019-03-01T11:02:14.195Z,9.22
2019-03-01T11:03:14.451Z,9.23
2019-03-01T11:04:14.711Z,9.24
2019-03-01T11:05:14.983Z,9.34
2019-03-01T11:06:14.250Z,9.36
2019-03-01T11:07:14.532Z,9.27
2019-03-01T11:08:14.800Z,9.43
2019-03-01T11:09:14.083Z,9.43
2019-03-01T11:10:14.354Z,9.19
2019-03-01T11:11:14.415Z,9.15
2019-03-01T11:12:14.689Z,8.99
2019-03-01T11:13:14.949Z,9.03
2019-03-01T11:14:14.218Z,9.19
2019-03-01T11:15:14.512Z,9.24
2019-03-01T11:16:14.797Z,9.17
2019-03-01T11:17:14.062Z,9.30
2019-03-01T11:18:14.338Z,9.26
2019-03-01T11:19:14.633Z,9.17
2019-03-01T11:20:14.921Z,9.33
2019-03-01T11:21:14.982Z,9.31
2019-03-01T11:22:14.245Z,9.19
2019-03-01T11:23:14.518Z,9.27
2019-03-01T11:24:14.789Z,9.33
2019-03-01T11:25:14.076Z,9.50
2019-03-01T11:26:14.342Z,9.37
2019-03-01T11:27:14.670Z,9.30
2019-03-01T11:28:14.937Z,9.19
2019-03-01T11:29:14.209Z,9.24
2019-03-01T11:30:14.485Z,9.20
2019-03-01T11:31:14.542Z,9.26
2019-03-01T11:32:14.811Z,9.37
2019-03-01T11:33:14.082Z,9.33
2019-03-01T11:34:14.352Z,9.38
2019-03-01T11:35:14.611Z,9.45
2019-03-01T11:36:14.877Z,9.33
2019-03-01T11:37:14.143Z,9.43
2019-03-01T11:38:14.409Z,9.33
2019-03-01T11:39:14.674Z,9.48
2019-03-01T11:40:14.945Z,9.50
2019-03-01T11:41:14.307Z,9.69
2019-03-01T11:42:14.576Z,9.75
2019-03-01T11:43:14.843Z,9.68
2019-03-01T11:44:14.107Z,9.71
2019-03-01T11:45:14.376Z,9.84
2019-03-01T11:46:14.636Z,9.92
2019-03-01T11:47:14.898Z,9.68
2019-03-01T11:48:14.178Z,9.71
2019-03-01T11:49:14.446Z,9.98
2019-03-01T11:50:14.724Z,9.86
2019-03-01T11:51:14.790Z,9.76
2019-03-01T11:52:14.057Z,9.71
2019-03-01T11:53:14.320Z,9.74
2019-03-01T11:54:14.589Z,9.88
2019-03-01T11:55:14.859Z,9.72
2019-03-01T11:56:14.137Z,9.69
2019-03-01T11:57:14.421Z,9.64
2019-03-01T11:58:14.703Z,9.65
2019-03-01T11:59:14.973Z,9.78
2019-03-01T12:00:14.266Z,9.93
2019-03-01T12:01:17.291Z,9.95
2019-03-01T12:02:14.913Z,9.98
2019-03-01T12:03:15.374Z,9.91
2019-03-01T12:04:14.878Z,9.76
2019-03-01T12:05:14.154Z,9.82
2019-03-01T12:06:14.418Z,9.85
2019-03-01T12:07:14.686Z,9.84
2019-03-01T12:08:14.960Z,9.84
2019-03-01T12:09:14.227Z,9.78
2019-03-01T12:10:14.507Z,9.71
2019-03-01T12:11:14.566Z,9.71
2019-03-01T12:12:14.838Z,9.78
2019-03-01T12:13:14.122Z,9.64
2019-03-01T12:14:14.394Z,9.65
2019-03-01T12:15:14.656Z,9.65
2019-03-01T12:16:14.918Z,9.65
2019-03-01T12:17:14.178Z,9.64
2019-03-01T12:18:14.439Z,9.59
2019-03-01T12:19:14.702Z,9.59
2019-03-01T12:20:14.983Z,9.51
2019-03-01T12:21:14.043Z,9.44
2019-03-01T12:22:17.036Z,9.38
2019-03-01T12:23:14.835Z,9.29
2019-03-01T12:24:14.099Z,9.16
2019-03-01T12:25:14.368Z,9.16
2019-03-01T12:26:14.648Z,8.96
2019-03-01T12:27:14.913Z,8.98
2019-03-01T12:28:14.182Z,8.92
2019-03-01T12:29:14.474Z,8.88
2019-03-01T12:30:14.753Z,8.88
2019-03-01T12:31:14.812Z,8.78
2019-03-01T12:32:14.072Z,8.74
2019-03-01T12:33:14.341Z,8.71
2019-03-01T12:34:14.613Z,8.64
2019-03-01T12:35:14.879Z,8.62
2019-03-01T12:36:14.143Z,8.61
2019-03-01T12:37:14.404Z,8.62
2019-03-01T12:38:14.673Z,8.65
2019-03-01T12:39:14.940Z,8.68
2019-03-01T12:40:14.209Z,8.71
2019-03-01T12:41:14.288Z,8.68
2019-03-01T12:42:14.553Z,8.69
2019-03-01T12:43:14.814Z,8.84
2019-03-01T12:44:14.074Z,8.79
2019-03-01T12:45:14.384Z,8.82
2019-03-01T12:46:14.651Z,8.84
2019-03-01T12:47:14.917Z,8.92
2019-03-01T12:48:14.186Z,8.95
2019-03-01T12:49:14.445Z,8.88
2019-03-01T12:50:14.709Z,8.94
2019-03-01T12:51:14.780Z,9.02
2019-03-01T12:52:14.047Z,9.09
2019-03-01T12:53:14.314Z,9.10
2019-03-01T12:54:14.580Z,9.17
2019-03-01T12:55:14.846Z,9.10
2019-03-01T12:56:14.110Z,9.16
2019-03-01T12:57:14.387Z,9.23
2019-03-01T12:58:19.314Z,9.24
2019-03-01T12:59:14.063Z,9.27
2019-03-01T13:00:14.343Z,9.30
2019-03-01T13:01:14.423Z,9.36
2019-03-01T13:02:14.687Z,9.33
2019-03-01T13:03:14.961Z,9.31
2019-03-01T13:04:15.568Z,9.37
2019-03-01T13:05:14.020Z,9.41
2019-03-01T13:06:14.290Z,9.36
2019-03-01T13:07:14.560Z,9.37
2019-03-01T13:08:15.733Z,9.37
2019-03-01T13:09:14.962Z,9.36
2019-03-01T13:10:14.250Z,9.48
2019-03-01T13:11:16.124Z,9.51
2019-03-01T13:12:14.460Z,9.47
2019-03-01T13:13:14.724Z,9.48
2019-03-01T13:14:14.009Z,9.58
2019-03-01T13:15:14.602Z,9.58
2019-03-01T13:16:14.914Z,9.53
2019-03-01T13:17:14.210Z,9.61
2019-03-01T13:18:16.615Z,9.66